createdAt,value
2022-10-02T00:01:49.996Z,7.70
2022-10-02T00:07:03.249Z,6.50
2022-10-02T00:12:14.261Z,6.80
2022-10-02T00:17:23.466Z,6.40
2022-10-02T00:22:46.816Z,6.00
2022-10-02T00:28:08.097Z,6.50
2022-10-02T00:33:23.906Z,6.00
2022-10-02T00:38:44.954Z,5.30
2022-10-02T00:44:04.263Z,6.30
2022-10-02T00:49:37.433Z,6.20
2022-10-02T00:55:16.832Z,5.80
2022-10-02T01:00:25.996Z,6.00
2022-10-02T01:05:34.314Z,6.40
2022-10-02T01:10:41.764Z,7.00
2022-10-02T01:15:52.932Z,6.30
2022-10-02T01:26:06.125Z,7.80
2022-10-02T01:31:14.715Z,8.40
2022-10-02T01:36:23.079Z,7.50
2022-10-02T01:41:28.911Z,7.10
2022-10-02T01:46:41.408Z,7.50
2022-10-02T01:52:10.021Z,7.70
2022-10-02T01:57:25.268Z,7.20
2022-10-02T02:02:42.389Z,7.60
2022-10-02T02:07:58.140Z,8.20
2022-10-02T02:13:07.833Z,8.20
2022-10-02T02:18:20.701Z,7.00
2022-10-02T02:23:31.826Z,6.60
2022-10-02T02:33:48.415Z,7.30
2022-10-02T02:39:00.235Z,7.00
2022-10-02T02:44:11.219Z,6.90
2022-10-02T02:49:17.538Z,8.30
2022-10-02T02:54:29.757Z,7.80
2022-10-02T02:59:38.347Z,7.10
2022-10-02T03:04:44.274Z,6.60
2022-10-02T03:10:01.582Z,8.10
2022-10-02T03:15:22.974Z,8.20
2022-10-02T03:20:36.686Z,7.70
2022-10-02T03:25:48.678Z,7.10
2022-10-02T03:30:57.691Z,8.80
2022-10-02T03:36:04.363Z,10.00
2022-10-02T03:41:10.277Z,8.60
2022-10-02T03:46:16.085Z,7.20
2022-10-02T03:51:22.120Z,8.60
2022-10-02T03:56:36.950Z,9.00
2022-10-02T04:01:49.140Z,8.20
2022-10-02T04:07:01.005Z,8.30
2022-10-02T04:12:12.401Z,8.60
2022-10-02T04:17:23.950Z,9.10
2022-10-02T04:22:39.219Z,8.60
2022-10-02T04:27:49.518Z,8.60
2022-10-02T04:32:56.757Z,8.30
2022-10-02T04:38:29.102Z,9.10
2022-10-02T04:43:53.922Z,8.10
2022-10-02T04:49:16.624Z,7.70
2022-10-02T04:54:46.240Z,8.40
2022-10-02T05:00:07.479Z,7.90
2022-10-02T05:05:40.661Z,7.50
2022-10-02T05:11:04.995Z,7.60
2022-10-02T05:16:28.360Z,7.10
2022-10-02T05:21:53.117Z,7.30
2022-10-02T05:27:17.631Z,6.70
2022-10-02T05:32:41.217Z,6.30
2022-10-02T05:37:59.613Z,6.00
2022-10-02T05:43:10.422Z,6.70
2022-10-02T05:48:23.208Z,5.60
2022-10-02T05:53:35.180Z,5.20
2022-10-02T05:58:50.781Z,5.00
2022-10-02T06:04:02.926Z,5.20
2022-10-02T06:09:19.559Z,5.00
2022-10-02T06:14:32.181Z,4.20
2022-10-02T06:19:44.203Z,3.90
2022-10-02T06:25:20.009Z,3.90
2022-10-02T06:30:26.579Z,3.00
2022-10-02T06:35:54.413Z,3.60
2022-10-02T06:41:11.739Z,4.00
2022-10-02T06:46:28.119Z,3.70
2022-10-02T06:51:45.934Z,3.70
2022-10-02T06:57:07.104Z,4.20
2022-10-02T07:07:53.792Z,3.00
2022-10-02T07:13:14.309Z,2.50
2022-10-02T07:18:32.727Z,3.60
2022-10-02T07:24:02.386Z,3.10
2022-10-02T07:29:37.120Z,3.20
2022-10-02T07:34:51.916Z,4.00
2022-10-02T07:40:21.848Z,4.20
2022-10-02T07:45:36.906Z,4.10
2022-10-02T07:50:56.460Z,4.70
2022-10-02T07:56:02.648Z,4.00
2022-10-02T08:01:16.665Z,4.00
2022-10-02T08:06:37.839Z,4.00
2022-10-02T08:11:49.679Z,3.80
2022-10-02T08:16:58.088Z,3.70
2022-10-02T08:22:10.293Z,3.80
2022-10-02T08:27:19.579Z,3.40
2022-10-02T08:32:34.850Z,3.00
2022-10-02T08:37:57.816Z,3.00
2022-10-02T08:43:45.423Z,3.40
2022-10-02T08:49:31.311Z,2.10
2022-10-02T08:55:12.537Z,2.40
2022-10-02T09:00:35.881Z,2.30
2022-10-02T09:06:15.703Z,2.10
2022-10-02T09:12:11.198Z,2.10
2022-10-02T09:17:35.880Z,2.20
2022-10-02T09:23:12.550Z,2.10
2022-10-02T09:29:00.098Z,1.70
2022-10-02T09:34:36.137Z,2.30
2022-10-02T09:39:59.855Z,1.90
2022-10-02T09:45:36.669Z,2.10
2022-10-02T09:51:10.767Z,2.10
2022-10-02T09:56:49.752Z,1.90
2022-10-02T10:02:27.538Z,2.00
2022-10-02T10:08:06.650Z,1.70
2022-10-02T10:13:46.985Z,1.70
2022-10-02T10:19:27.283Z,1.60
2022-10-02T10:24:56.422Z,1.30
2022-10-02T10:30:21.392Z,1.80
2022-10-02T10:35:40.366Z,1.60
2022-10-02T10:41:05.599Z,1.40
2022-10-02T10:46:42.783Z,2.00
2022-10-02T10:51:55.361Z,2.00
2022-10-02T10:57:11.311Z,2.30
2022-10-02T11:02:54.767Z,1.70
2022-10-02T11:08:24.448Z,1.60
2022-10-02T11:13:46.742Z,1.60
2022-10-02T11:19:20.574Z,1.50
2022-10-02T11:24:44.194Z,1.30
2022-10-02T11:30:20.673Z,1.40
2022-10-02T11:35:35.872Z,1.50
2022-10-02T11:40:58.001Z,1.20
2022-10-02T11:46:36.507Z,1.40
2022-10-02T11:52:00.098Z,1.60
2022-10-02T11:57:25.900Z,1.60
2022-10-02T12:02:38.710Z,1.40
2022-10-02T12:07:55.575Z,1.30
2022-10-02T12:13:24.673Z,1.30
2022-10-02T12:18:44.395Z,1.50
2022-10-02T12:24:14.614Z,2.30
2022-10-02T12:29:31.492Z,2.30
2022-10-02T12:34:51.658Z,1.30
2022-10-02T12:40:10.146Z,1.40
2022-10-02T12:45:33.421Z,1.50
2022-10-02T12:51:07.359Z,1.70
2022-10-02T12:56:43.889Z,1.60
2022-10-02T13:02:49.173Z,1.30
2022-10-02T13:08:25.519Z,1.90
2022-10-02T13:13:54.301Z,2.10
2022-10-02T13:19:15.918Z,1.60
2022-10-02T13:24:43.208Z,1.80
2022-10-02T13:30:01.314Z,1.70
2022-10-02T13:35:24.952Z,2.00
2022-10-02T13:40:38.485Z,1.30
2022-10-02T13:45:53.909Z,1.70
2022-10-02T13:51:05.368Z,1.70
2022-10-02T13:56:20.810Z,1.70
2022-10-02T14:01:37.164Z,1.90
2022-10-02T14:06:49.010Z,1.70
2022-10-02T14:12:11.509Z,1.60
2022-10-02T14:17:26.499Z,1.60
2022-10-02T14:22:43.274Z,1.80
2022-10-02T14:28:25.591Z,1.60
2022-10-02T14:33:42.157Z,2.10
2022-10-02T14:39:02.113Z,2.10
2022-10-02T14:44:35.543Z,2.40
2022-10-02T14:50:13.896Z,1.90
2022-10-02T14:55:32.626Z,2.00
2022-10-02T15:00:50.066Z,1.90
2022-10-02T15:06:11.805Z,1.70
2022-10-02T15:11:30.068Z,1.90
2022-10-02T15:17:06.184Z,1.80
2022-10-02T15:22:20.348Z,1.90
2022-10-02T15:27:32.334Z,1.80
2022-10-02T15:33:07.472Z,2.00
2022-10-02T15:38:38.953Z,1.90
2022-10-02T15:43:53.620Z,2.20
2022-10-02T15:49:04.688Z,2.00
2022-10-02T15:54:24.836Z,4.10
2022-10-02T15:59:49.732Z,6.70
2022-10-02T16:05:09.107Z,7.70
2022-10-02T16:10:24.592Z,11.50
2022-10-02T16:15:47.100Z,6.40
2022-10-02T16:21:14.003Z,2.70
2022-10-02T16:26:35.158Z,2.80
2022-10-02T16:31:59.962Z,3.30
2022-10-02T16:37:10.296Z,2.70
2022-10-02T16:42:32.308Z,2.50
2022-10-02T16:47:48.008Z,2.70
2022-10-02T16:52:58.857Z,2.70
2022-10-02T16:58:21.947Z,3.10
2022-10-02T17:03:34.501Z,3.70
2022-10-02T17:08:47.882Z,3.20
2022-10-02T17:14:11.919Z,4.10
2022-10-02T17:19:25.929Z,6.20
2022-10-02T17:24:40.695Z,7.50
2022-10-02T17:29:58.215Z,7.50
2022-10-02T17:35:10.252Z,8.70
2022-10-02T17:40:20.985Z,6.70
2022-10-02T17:45:37.129Z,4.80
2022-10-02T17:50:55.332Z,5.00
2022-10-02T17:56:44.189Z,5.30
2022-10-02T18:02:00.812Z,5.90
2022-10-02T18:07:29.651Z,5.70
2022-10-02T18:13:06.382Z,5.00
2022-10-02T18:18:30.087Z,5.10
2022-10-02T18:24:00.687Z,5.30
2022-10-02T18:29:26.150Z,7.00
2022-10-02T18:34:54.945Z,7.90
2022-10-02T18:40:22.354Z,8.00
2022-10-02T18:45:40.779Z,6.60
2022-10-02T18:51:04.592Z,6.60
2022-10-02T18:56:15.105Z,5.20
2022-10-02T19:01:52.945Z,5.10
2022-10-02T19:07:07.299Z,5.00
2022-10-02T19:12:22.216Z,5.40
2022-10-02T19:17:34.790Z,5.10
2022-10-02T19:22:41.161Z,5.00
2022-10-02T19:27:54.003Z,4.20
2022-10-02T19:33:07.645Z,4.60
2022-10-02T19:38:25.019Z,5.40
2022-10-02T19:43:34.481Z,5.40
2022-10-02T19:48:41.380Z,4.80
2022-10-02T19:53:53.395Z,5.00
2022-10-02T19:59:04.671Z,4.10
2022-10-02T20:09:24.802Z,3.70
2022-10-02T20:14:37.076Z,3.30
2022-10-02T20:19:51.700Z,3.80
2022-10-02T20:25:03.586Z,3.00
2022-10-02T20:30:16.782Z,2.90
2022-10-02T20:35:34.754Z,2.50
2022-10-02T20:40:47.017Z,2.30
2022-10-02T20:46:05.508Z,2.20
2022-10-02T20:51:19.331Z,1.80
2022-10-02T20:56:38.335Z,1.80
2022-10-02T21:01:54.644Z,2.00
2022-10-02T21:07:24.141Z,2.00
2022-10-02T21:13:19.278Z,2.50
2022-10-02T21:18:52.497Z,2.40
2022-10-02T21:24:28.916Z,2.40
2022-10-02T21:30:02.338Z,2.40
2022-10-02T21:35:16.838Z,2.90
2022-10-02T21:41:12.660Z,2.50
2022-10-02T21:46:47.742Z,2.30
2022-10-02T21:52:18.283Z,3.30
2022-10-02T21:58:03.262Z,2.90
2022-10-02T22:03:45.650Z,2.60
2022-10-02T22:09:05.360Z,2.50
2022-10-02T22:14:14.896Z,2.70
2022-10-02T22:19:48.483Z,2.40
2022-10-02T22:25:14.014Z,2.20
2022-10-02T22:30:26.062Z,2.70
2022-10-02T22:35:47.672Z,2.50
2022-10-02T22:40:58.025Z,2.30
2022-10-02T22:46:09.793Z,2.60
2022-10-02T22:51:20.434Z,2.40
2022-10-02T22:56:32.025Z,2.50
2022-10-02T23:01:45.522Z,2.40
2022-10-02T23:06:58.389Z,2.40
2022-10-02T23:12:12.766Z,3.00
2022-10-02T23:17:27.148Z,2.80
2022-10-02T23:22:37.881Z,3.00
2022-10-02T23:27:54.675Z,3.60
2022-10-02T23:33:05.178Z,4.30
2022-10-02T23:38:23.290Z,4.40
2022-10-02T23:43:35.321Z,3.90
2022-10-02T23:48:42.194Z,3.90
2022-10-02T23:54:15.877Z,4.10
2022-10-02T23:59:44.173Z,4.00
